Time;durP1;ratioP1;P1;durP2;ratioP2;P2;SDS_P1;SDS_P2;PMS_P1;PMS_P2;Temp;Humidity;BMP_temperature;BMP_pressure;BME280_temperature;BME280_humidity;BME280_pressure;Samples;Min_cycle;Max_cycle;Signal;HPM_P1;HPM_P2
2021/10/05 00:00:11;;;;;;;2.05;0.63;;;;;;;21.42;50.25;101121.78;4994802;28;20026;-63
2021/10/05 00:02:40;;;;;;;3.35;0.90;;;;;;;21.40;50.37;101129.03;4995152;28;20384;-63
2021/10/05 00:05:09;;;;;;;1.77;0.70;;;;;;;21.41;49.99;101125.41;4994020;28;20018;-62
2021/10/05 00:07:35;;;;;;;1.23;0.65;;;;;;;21.39;50.14;101117.59;4994955;28;20394;-63
2021/10/05 00:10:00;;;;;;;2.05;0.70;;;;;;;21.36;50.05;101118.72;4994504;28;20114;-62
2021/10/05 00:12:25;;;;;;;2.40;0.80;;;;;;;21.35;50.17;101113.56;4993979;28;20037;-63
2021/10/05 00:14:51;;;;;;;2.28;0.80;;;;;;;21.33;50.13;101120.78;4994665;28;20018;-63
2021/10/05 00:17:18;;;;;;;1.50;0.68;;;;;;;21.31;50.02;101123.56;4994790;28;20470;-63
2021/10/05 00:19:44;;;;;;;3.97;0.82;;;;;;;21.30;50.11;101121.06;4994095;28;20026;-63
2021/10/05 00:22:14;;;;;;;1.83;0.70;;;;;;;21.30;50.17;101124.56;4994355;28;20073;-63
2021/10/05 00:24:40;;;;;;;2.05;0.60;;;;;;;21.31;50.12;101123.56;4994546;28;20088;-62
2021/10/05 00:27:06;;;;;;;2.22;0.60;;;;;;;21.30;50.05;101115.75;4993436;28;20038;-63
2021/10/05 00:29:32;;;;;;;1.52;0.60;;;;;;;21.28;50.10;101109.78;4994918;28;20030;-63
2021/10/05 00:31:57;;;;;;;1.92;0.77;;;;;;;21.28;49.88;101107.94;4994397;28;20463;-62
2021/10/05 00:34:22;;;;;;;2.08;0.88;;;;;;;21.27;50.12;101098.34;4993748;28;20018;-62
2021/10/05 00:36:48;;;;;;;1.92;0.60;;;;;;;21.27;50.18;101093.03;4994112;28;20027;-62
2021/10/05 00:39:13;;;;;;;1.57;0.70;;;;;;;21.26;50.02;101091.34;4993514;28;20026;-63
2021/10/05 00:41:38;;;;;;;2.30;0.75;;;;;;;21.25;50.17;101083.53;4994110;28;20292;-63
2021/10/05 00:44:04;;;;;;;2.20;0.82;;;;;;;21.23;49.95;101081.03;4993999;28;20035;-64
2021/10/05 00:46:29;;;;;;;2.55;0.80;;;;;;;21.23;50.01;101074.91;4993469;28;20030;-62
2021/10/05 00:48:55;;;;;;;2.78;0.77;;;;;;;21.23;50.23;101070.44;4993753;28;20061;-63
2021/10/05 00:51:23;;;;;;;2.28;0.70;;;;;;;21.23;49.88;101069.59;4993928;28;20391;-63
2021/10/05 00:53:49;;;;;;;2.00;0.85;;;;;;;21.23;49.88;101067.78;4993133;28;20109;-63
2021/10/05 00:56:14;;;;;;;1.88;0.70;;;;;;;21.23;49.95;101065.13;4993785;28;20165;-62
2021/10/05 00:58:43;;;;;;;2.35;0.75;;;;;;;21.22;49.70;101065.25;4994183;28;20022;-62
2021/10/05 01:01:09;;;;;;;2.15;0.77;;;;;;;21.22;49.88;101062.63;4993083;28;20097;-63
2021/10/05 01:03:34;;;;;;;2.25;0.70;;;;;;;21.19;50.10;101061.94;4994033;28;20128;-64
2021/10/05 01:05:59;;;;;;;1.02;0.52;;;;;;;21.20;49.93;101065.41;4993717;28;20459;-63
2021/10/05 01:08:25;;;;;;;2.08;0.75;;;;;;;21.18;49.84;101043.50;4993148;28;20023;-64
2021/10/05 01:10:51;;;;;;;1.58;0.80;;;;;;;21.16;50.00;101042.81;4993316;28;20038;-63
2021/10/05 01:13:16;;;;;;;2.03;0.70;;;;;;;21.17;49.87;101039.19;4993980;28;20602;-63
2021/10/05 01:15:41;;;;;;;2.40;0.70;;;;;;;21.14;49.65;101039.47;4993091;28;20458;-63
2021/10/05 01:18:07;;;;;;;1.52;0.70;;;;;;;21.14;49.71;101036.81;4993392;28;20037;-64
2021/10/05 01:20:50;;;;;;;2.20;0.60;;;;;;;21.14;49.74;101037.66;4993693;28;20030;-63
2021/10/05 01:23:15;;;;;;;1.85;0.65;;;;;;;21.13;49.74;101027.19;4992666;28;20116;-63
2021/10/05 01:25:40;;;;;;;1.90;0.70;;;;;;;21.13;49.69;101021.91;4993647;28;20497;-63
2021/10/05 01:28:06;;;;;;;1.35;0.60;;;;;;;21.12;49.67;101018.41;4993287;28;20300;-63
2021/10/05 01:30:31;;;;;;;1.95;0.70;;;;;;;21.11;49.73;101006.16;4992574;28;20327;-64
2021/10/05 01:32:56;;;;;;;2.10;0.82;;;;;;;21.11;49.67;101002.63;4993197;28;20058;-63
2021/10/05 01:35:22;;;;;;;1.97;0.70;;;;;;;21.09;49.38;101002.78;4993048;28;20113;-63
2021/10/05 01:37:47;;;;;;;1.20;0.70;;;;;;;21.08;49.72;101002.91;4993255;28;20299;-63
2021/10/05 01:40:13;;;;;;;0.95;0.60;;;;;;;21.07;49.74;101003.91;4993304;28;20783;-63
2021/10/05 01:42:39;;;;;;;3.38;0.65;;;;;;;21.07;49.54;101004.75;4992671;28;20063;-63
2021/10/05 01:45:06;;;;;;;1.88;0.65;;;;;;;21.08;49.49;101000.25;4992926;28;20018;-63
2021/10/05 01:47:31;;;;;;;2.22;0.70;;;;;;;21.07;49.69;100996.78;4993173;28;20080;-63
2021/10/05 01:49:56;;;;;;;1.20;0.60;;;;;;;21.07;49.74;100998.59;4991925;28;20079;-63
2021/10/05 01:52:23;;;;;;;1.48;0.65;;;;;;;21.06;49.39;100989.84;4993460;28;20038;-63
2021/10/05 01:54:48;;;;;;;2.00;0.70;;;;;;;21.06;49.66;100994.28;4992855;28;20042;-63
2021/10/05 01:57:16;;;;;;;2.63;0.70;;;;;;;21.05;49.72;100989.97;4992374;28;20053;-63
2021/10/05 01:59:41;;;;;;;1.67;0.70;;;;;;;21.04;49.66;100978.53;4992842;28;20507;-64
2021/10/05 02:02:06;;;;;;;0.97;0.50;;;;;;;21.03;49.65;100979.53;4992678;28;20065;-64
2021/10/05 02:04:32;;;;;;;1.88;0.60;;;;;;;21.01;49.66;100973.50;4992292;28;20303;-62
2021/10/05 02:06:57;;;;;;;1.08;0.50;;;;;;;21.01;49.37;100970.84;4992588;28;20050;-63
2021/10/05 02:09:23;;;;;;;2.47;0.70;;;;;;;21.00;49.72;100963.91;4992824;28;20022;-62
2021/10/05 02:11:48;;;;;;;2.33;0.68;;;;;;;20.99;49.65;100965.69;4991623;28;20042;-63
2021/10/05 02:14:13;;;;;;;1.40;0.60;;;;;;;21.00;49.69;100955.94;4992973;28;20019;-63
2021/10/05 02:16:39;;;;;;;1.83;0.77;;;;;;;20.99;49.35;100946.31;4992074;28;20045;-64
2021/10/05 02:19:06;;;;;;;1.35;0.57;;;;;;;21.00;49.48;100945.34;4991860;28;20514;-63
2021/10/05 02:21:32;;;;;;;1.20;0.60;;;;;;;20.99;49.37;100938.38;4992643;28;20102;-63
2021/10/05 02:26:41;;;;;;;1.00;0.50;;;;;;;20.96;49.42;100934.19;4991934;28;20179;-63
2021/10/05 02:29:06;;;;;;;2.25;0.60;;;;;;;20.95;49.45;100929.03;4992538;28;21154;-63
2021/10/05 02:31:32;;;;;;;1.63;0.52;;;;;;;20.94;49.55;100924.72;4992804;28;20019;-62
2021/10/05 02:33:58;;;;;;;1.45;0.73;;;;;;;20.92;49.46;100919.56;4991513;28;20073;-63
2021/10/05 02:36:23;;;;;;;2.72;0.98;;;;;;;20.91;49.84;100917.88;4992535;28;20066;-62
2021/10/05 02:38:48;;;;;;;1.40;0.60;;;;;;;20.90;49.70;100910.91;4991661;28;20034;-63
2021/10/05 02:41:14;;;;;;;1.30;0.60;;;;;;;20.91;49.44;100907.28;4992483;28;20026;-63
2021/10/05 02:43:39;;;;;;;1.63;0.60;;;;;;;20.91;49.47;100901.97;4992727;28;20105;-64
2021/10/05 02:46:13;;;;;;;2.33;0.80;;;;;;;20.91;49.44;100895.84;4991537;28;20094;-63
2021/10/05 02:48:39;;;;;;;1.63;0.50;;;;;;;20.93;49.21;100891.25;4992448;28;20182;-63
2021/10/05 02:51:04;;;;;;;1.70;0.70;;;;;;;20.92;49.25;100898.38;4991939;28;20183;-62
2021/10/05 02:53:30;;;;;;;1.57;0.60;;;;;;;20.92;49.40;100887.78;4991894;28;20041;-63
2021/10/05 02:55:55;;;;;;;1.25;0.52;;;;;;;20.92;49.43;100893.06;4992414;28;20292;-63
2021/10/05 02:58:21;;;;;;;1.45;0.60;;;;;;;20.91;49.36;100887.91;4992652;28;20033;-64
2021/10/05 03:00:49;;;;;;;1.92;0.70;;;;;;;20.89;49.28;100888.06;4991694;28;20096;-63
2021/10/05 03:03:14;;;;;;;2.97;0.70;;;;;;;20.87;49.33;100874.13;4992399;28;20032;-63
2021/10/05 03:05:39;;;;;;;2.03;0.70;;;;;;;20.88;49.42;100874.94;4992273;28;20030;-63
2021/10/05 03:08:06;;;;;;;1.60;0.52;;;;;;;20.89;49.34;100866.88;4991533;28;20081;-63
2021/10/05 03:10:35;;;;;;;1.50;0.65;;;;;;;20.89;49.35;100866.03;4992537;28;20069;-62
2021/10/05 03:13:04;;;;;;;2.42;0.70;;;;;;;20.88;49.33;100861.72;4992075;28;20490;-62
2021/10/05 03:15:33;;;;;;;1.35;0.50;;;;;;;20.88;49.48;100859.06;4991711;28;20359;-64
2021/10/05 03:17:59;;;;;;;1.10;0.60;;;;;;;20.84;49.44;100850.56;4991795;28;20026;-64
2021/10/05 03:20:24;;;;;;;1.73;0.68;;;;;;;20.85;49.23;100846.91;4992667;28;20374;-63
2021/10/05 03:22:49;;;;;;;1.57;0.57;;;;;;;20.83;49.37;100844.41;4992800;28;20038;-63
2021/10/05 03:25:14;;;;;;;2.22;0.60;;;;;;;20.83;49.45;100835.66;4995849;28;20294;-63
2021/10/05 03:27:40;;;;;;;1.45;0.60;;;;;;;20.83;49.19;100833.81;4995896;28;20034;-63
2021/10/05 03:30:12;;;;;;;1.20;0.60;;;;;;;20.80;49.32;100836.75;4994735;28;20394;-64
2021/10/05 03:32:37;;;;;;;0.98;0.57;;;;;;;20.81;49.17;100821.72;4995629;28;20026;-63
2021/10/05 03:35:03;;;;;;;1.30;0.60;;;;;;;20.80;49.34;100820.03;4994711;28;20033;-63
2021/10/05 03:37:29;;;;;;;1.23;0.47;;;;;;;20.80;49.26;100818.22;4995565;28;20292;-64
2021/10/05 03:39:54;;;;;;;2.65;0.70;;;;;;;20.82;49.15;100820.72;4995401;28;20498;-64
2021/10/05 03:42:19;;;;;;;1.63;0.68;;;;;;;20.80;49.01;100815.56;4994901;28;20038;-64
2021/10/05 03:44:45;;;;;;;1.02;0.55;;;;;;;20.79;49.23;100810.41;4995605;28;20041;-63
2021/10/05 03:47:13;;;;;;;0.93;0.50;;;;;;;20.79;49.43;100807.75;4995155;28;20038;-63
2021/10/05 03:49:38;;;;;;;1.17;0.50;;;;;;;20.80;49.16;100806.78;4994147;28;20283;-63
2021/10/05 03:52:04;;;;;;;1.42;0.60;;;;;;;20.79;49.16;100799.81;4995326;28;20040;-64
2021/10/05 03:54:29;;;;;;;1.52;0.55;;;;;;;20.78;49.23;100798.16;4995502;28;20482;-64
2021/10/05 03:56:55;;;;;;;1.35;0.55;;;;;;;20.77;49.42;100794.66;4994252;28;20389;-63
2021/10/05 03:59:23;;;;;;;1.98;0.70;;;;;;;20.76;49.22;100782.41;4995294;28;20022;-63
2021/10/05 04:01:48;;;;;;;0.95;0.55;;;;;;;20.77;49.22;100777.94;4994745;28;20101;-63
2021/10/05 04:04:14;;;;;;;2.28;0.50;;;;;;;20.76;49.23;100778.91;4994231;28;20105;-63
2021/10/05 04:06:40;;;;;;;1.95;0.60;;;;;;;20.76;49.28;100778.91;4994886;28;20034;-64
2021/10/05 04:09:06;;;;;;;1.35;0.60;;;;;;;20.74;49.11;100775.59;4994792;28;20081;-63
2021/10/05 04:11:35;;;;;;;1.48;0.68;;;;;;;20.75;49.30;100770.13;4994273;28;20425;-63
2021/10/05 04:14:01;;;;;;;2.03;0.57;;;;;;;20.74;49.12;100760.50;4994535;28;20037;-62
2021/10/05 04:16:26;;;;;;;0.75;0.50;;;;;;;20.73;49.39;100760.66;4994722;28;20212;-63
2021/10/05 04:18:54;;;;;;;2.20;0.70;;;;;;;20.73;49.17;100760.66;4993896;28;20433;-64
2021/10/05 04:21:19;;;;;;;2.38;0.65;;;;;;;20.71;49.21;100754.69;4994801;28;20118;-63
2021/10/05 04:23:48;;;;;;;1.38;0.60;;;;;;;20.71;49.26;100752.03;4994631;28;20105;-63
2021/10/05 04:26:16;;;;;;;1.08;0.40;;;;;;;20.72;49.22;100753.72;4993951;28;20390;-64
2021/10/05 04:28:41;;;;;;;2.22;0.60;;;;;;;20.71;49.23;100746.75;4994564;28;20030;-63
2021/10/05 04:31:16;;;;;;;1.27;0.57;;;;;;;20.72;49.28;100743.13;4994121;28;20072;-63
2021/10/05 04:33:41;;;;;;;2.17;0.68;;;;;;;20.71;49.27;100741.44;4994271;28;20268;-63
2021/10/05 04:36:06;;;;;;;2.50;0.63;;;;;;;20.70;48.95;100742.44;4994786;28;20061;-64
2021/10/05 04:38:31;;;;;;;1.55;0.50;;;;;;;20.70;49.08;100729.19;4994391;28;20573;-63
2021/10/05 04:41:00;;;;;;;1.80;0.70;;;;;;;20.70;49.35;100729.19;4994915;28;20038;-62
2021/10/05 04:43:25;;;;;;;1.33;0.50;;;;;;;20.70;49.06;100718.59;4994812;28;20030;-63
2021/10/05 04:45:50;;;;;;;1.20;0.50;;;;;;;20.68;49.11;100713.47;4993769;28;20045;-62
2021/10/05 04:48:16;;;;;;;0.98;0.60;;;;;;;20.69;49.40;100715.09;4994108;28;20077;-63
2021/10/05 04:50:41;;;;;;;0.93;0.60;;;;;;;20.69;49.03;100709.81;4993706;28;20097;-64
2021/10/05 04:53:06;;;;;;;1.63;0.85;;;;;;;20.70;49.14;100715.97;4992641;28;20033;-63
2021/10/05 04:55:32;;;;;;;1.40;0.57;;;;;;;20.68;49.05;100709.94;4993546;28;20022;-64
2021/10/05 04:58:00;;;;;;;0.95;0.50;;;;;;;20.68;49.06;100700.22;4993336;28;20125;-63
2021/10/05 05:00:26;;;;;;;1.30;0.70;;;;;;;20.68;49.07;100702.00;4992874;28;20022;-64
2021/10/05 05:02:51;;;;;;;1.50;0.70;;;;;;;20.67;49.22;100697.72;4993468;28;20026;-63
2021/10/05 05:05:16;;;;;;;1.25;0.60;;;;;;;20.67;48.94;100701.19;4993054;28;20331;-63
2021/10/05 05:07:41;;;;;;;0.65;0.50;;;;;;;20.67;49.12;100692.41;4992812;28;20112;-63
2021/10/05 05:10:07;;;;;;;2.93;0.83;;;;;;;20.67;48.98;100687.13;4993054;28;20467;-63
2021/10/05 05:12:33;;;;;;;2.17;0.75;;;;;;;20.66;49.05;100691.56;4993205;28;20427;-62
2021/10/05 05:14:59;;;;;;;2.35;0.80;;;;;;;20.66;49.01;100691.56;4992452;28;20033;-63
2021/10/05 05:17:27;;;;;;;1.45;0.70;;;;;;;20.65;48.92;100685.44;4993072;28;20041;-63
2021/10/05 05:19:53;;;;;;;1.08;0.50;;;;;;;20.64;49.12;100683.75;4993433;28;20022;-63
2021/10/05 05:22:18;;;;;;;1.13;0.50;;;;;;;20.65;48.98;100682.78;4992039;28;20038;-63
2021/10/05 05:24:43;;;;;;;1.73;0.60;;;;;;;20.65;49.05;100672.19;4993089;28;20026;-63
2021/10/05 05:27:09;;;;;;;1.55;0.60;;;;;;;20.64;49.32;100669.69;4992654;28;20034;-63
2021/10/05 05:29:34;;;;;;;1.03;0.40;;;;;;;20.61;49.93;100670.78;4992492;28;20116;-63
2021/10/05 05:32:03;;;;;;;1.33;0.57;;;;;;;20.58;50.52;100660.47;4993186;28;20630;-63
2021/10/05 05:34:28;;;;;;;1.25;0.50;;;;;;;20.58;51.16;100657.84;4992868;28;20026;-63
2021/10/05 05:36:54;;;;;;;2.25;0.60;;;;;;;20.60;51.10;100649.75;4992404;28;20470;-63
2021/10/05 05:39:20;;;;;;;1.95;0.90;;;;;;;20.62;51.30;100650.44;4992640;28;20029;-63
2021/10/05 05:41:45;;;;;;;1.55;0.60;;;;;;;20.64;51.30;100652.00;4992216;28;20457;-64
2021/10/05 05:44:17;;;;;;;1.33;0.60;;;;;;;20.67;51.29;100639.47;4992471;28;20023;-63
2021/10/05 05:46:42;;;;;;;1.15;0.55;;;;;;;20.68;51.26;100643.75;4992653;28;20315;-63
2021/10/05 05:49:08;;;;;;;0.98;0.60;;;;;;;20.70;51.24;100650.59;4991759;28;20073;-63
2021/10/05 05:51:35;;;;;;;1.42;0.40;;;;;;;20.74;51.12;100644.00;4992573;28;20489;-63
2021/10/05 05:54:01;;;;;;;1.40;0.52;;;;;;;20.75;50.42;100643.03;4992636;28;20489;-62
2021/10/05 05:56:26;;;;;;;3.05;1.00;;;;;;;20.75;50.45;100635.09;4991586;28;20039;-63
2021/10/05 05:58:55;;;;;;;1.38;0.70;;;;;;;20.75;50.26;100644.84;4992677;28;20022;-63
2021/10/05 06:01:21;;;;;;;2.30;0.90;;;;;;;20.77;50.20;100648.19;4992554;28;20390;-64
2021/10/05 06:03:49;;;;;;;1.08;0.50;;;;;;;20.78;50.25;100648.03;4991981;28;20022;-63
2021/10/05 06:06:18;;;;;;;1.38;0.60;;;;;;;20.79;50.25;100646.22;4992424;28;20112;-63
2021/10/05 06:08:43;;;;;;;1.55;0.68;;;;;;;20.81;50.15;100644.28;4992350;28;20041;-64
2021/10/05 06:11:08;;;;;;;2.50;0.73;;;;;;;20.82;50.23;100641.47;4991376;28;20105;-63
2021/10/05 06:13:34;;;;;;;1.63;0.68;;;;;;;20.84;50.29;100633.38;4992468;28;20029;-64
2021/10/05 06:15:59;;;;;;;2.40;0.80;;;;;;;20.85;50.46;100637.69;4992600;28;20038;-64
2021/10/05 06:18:25;;;;;;;1.05;0.60;;;;;;;20.86;50.40;100627.94;4991463;28;20061;-64
2021/10/05 06:20:50;;;;;;;1.50;0.60;;;;;;;20.87;50.53;100625.16;4992523;28;20118;-64
2021/10/05 06:23:15;;;;;;;2.85;0.70;;;;;;;20.89;50.39;100627.63;4992078;28;20057;-63
2021/10/05 06:25:42;;;;;;;1.42;0.65;;;;;;;20.91;50.44;100623.03;4991838;28;20026;-64
2021/10/05 06:28:08;;;;;;;1.58;0.70;;;;;;;20.89;50.23;100623.16;4992408;28;20038;-63
2021/10/05 06:30:37;;;;;;;1.50;0.57;;;;;;;20.92;50.03;100617.56;4992754;28;20022;-63
2021/10/05 06:33:03;;;;;;;1.35;0.52;;;;;;;20.92;50.29;100614.06;4991685;28;20046;-62
2021/10/05 06:35:30;;;;;;;1.02;0.50;;;;;;;20.95;50.09;100600.53;4992019;28;20064;-64
2021/10/05 06:37:58;;;;;;;1.80;0.60;;;;;;;20.97;50.11;100596.75;4991487;28;20034;-63
2021/10/05 06:40:25;;;;;;;1.58;0.60;;;;;;;20.99;50.24;100596.63;4992189;28;20066;-66
2021/10/05 06:42:51;;;;;;;0.85;0.50;;;;;;;20.99;50.16;100596.63;4992281;28;20034;-67
2021/10/05 06:45:16;;;;;;;0.95;0.60;;;;;;;20.99;50.22;100602.75;4991467;28;20465;-66
2021/10/05 06:47:42;;;;;;;1.88;0.70;;;;;;;21.01;50.37;100599.94;4992332;28;20069;-67
2021/10/05 06:50:08;;;;;;;1.50;0.60;;;;;;;21.02;50.47;100602.44;4991752;28;20046;-66
2021/10/05 06:52:34;;;;;;;2.25;0.73;;;;;;;21.04;50.45;100601.47;4991544;28;20493;-68
2021/10/05 06:54:59;;;;;;;0.80;0.50;;;;;;;21.05;50.61;100603.16;4992396;28;20533;-63
2021/10/05 06:57:25;;;;;;;1.40;0.50;;;;;;;21.04;50.71;100597.00;4994422;28;20587;-63
2021/10/05 06:59:50;;;;;;;2.00;0.80;;;;;;;21.05;50.71;100595.19;4995138;28;20470;-62
2021/10/05 07:02:15;;;;;;;1.00;0.60;;;;;;;21.06;50.54;100596.84;4995781;28;20429;-63
2021/10/05 07:04:41;;;;;;;2.37;0.67;;;;;;;21.10;50.37;100588.44;4995815;28;20034;-63
2021/10/05 07:07:06;;;;;;;1.20;0.60;;;;;;;21.12;49.69;100589.13;4995075;28;20279;-64
2021/10/05 07:09:31;;;;;;;1.03;0.50;;;;;;;21.16;49.70;100582.56;4999565;28;20026;-62
2021/10/05 07:11:57;;;;;;;2.35;0.57;;;;;;;21.21;49.77;100576.81;4997430;28;20292;-65
2021/10/05 07:14:22;;;;;;;1.50;0.70;;;;;;;21.30;49.51;100581.19;4996577;28;20497;-64
2021/10/05 07:16:48;;;;;;;1.88;0.55;;;;;;;21.41;49.26;100573.97;4996626;28;20136;-62
2021/10/05 07:19:13;;;;;;;3.58;0.80;;;;;;;21.49;48.89;100572.28;4995976;28;20101;-63
2021/10/05 07:21:38;;;;;;;0.85;0.52;;;;;;;21.57;48.77;100574.16;4994966;28;20435;-65
2021/10/05 07:24:04;;;;;;;3.72;0.70;;;;;;;21.63;48.42;100564.75;4998202;28;20030;-64
2021/10/05 07:26:29;;;;;;;2.92;0.60;;;;;;;21.64;48.66;100548.69;4995863;28;20335;-63
2021/10/05 07:28:55;;;;;;;2.65;0.75;;;;;;;21.69;48.61;100551.69;4995021;28;20030;-63
2021/10/05 07:31:20;;;;;;;3.67;0.85;;;;;;;21.73;48.61;100552.25;4995326;28;20084;-64
2021/10/05 07:33:48;;;;;;;1.02;0.52;;;;;;;21.76;48.47;100551.06;4995389;28;20030;-64
2021/10/05 07:36:18;;;;;;;1.85;0.70;;;;;;;21.77;48.48;100534.19;4994960;28;20057;-62
2021/10/05 07:38:43;;;;;;;1.23;0.60;;;;;;;21.81;48.27;100540.81;4995415;28;20030;-65
2021/10/05 07:41:13;;;;;;;0.98;0.50;;;;;;;21.80;47.96;100534.69;5013962;28;20045;-60
2021/10/05 07:43:38;;;;;;;1.15;0.60;;;;;;;21.78;48.06;100536.69;5017286;28;20038;-63
2021/10/05 07:46:03;;;;;;;3.80;1.00;;;;;;;21.75;48.40;100539.66;4996656;28;20026;-64
2021/10/05 07:48:29;;;;;;;2.03;0.60;;;;;;;21.77;48.25;100524.41;4994524;28;20437;-64
2021/10/05 07:50:55;;;;;;;2.08;0.65;;;;;;;21.80;48.32;100521.44;4994812;28;20052;-65
2021/10/05 07:53:20;;;;;;;1.65;0.65;;;;;;;21.78;48.67;100511.97;4994780;28;20393;-64
2021/10/05 07:55:46;;;;;;;2.67;0.77;;;;;;;21.74;48.31;100504.31;4994443;28;20419;-64
2021/10/05 07:58:14;;;;;;;1.73;0.63;;;;;;;21.73;48.44;100501.84;4994498;28;20299;-64
2021/10/05 08:00:40;;;;;;;1.65;0.68;;;;;;;21.71;48.48;100504.66;4994984;28;20433;-63
2021/10/05 08:03:05;;;;;;;1.17;0.50;;;;;;;21.69;49.05;100493.34;4994010;28;20030;-61
2021/10/05 08:05:50;;;;;;;0.93;0.40;;;;;;;21.78;48.69;100496.91;4995001;28;20046;-60
2021/10/05 08:08:16;;;;;;;1.73;0.50;;;;;;;21.82;48.43;100490.28;4992859;28;20280;-58
2021/10/05 08:10:42;;;;;;;1.37;0.60;;;;;;;21.85;48.38;100486.47;4994589;28;20443;-61
2021/10/05 08:13:08;;;;;;;1.73;0.50;;;;;;;21.82;48.63;100478.84;4996218;28;20292;-59
2021/10/05 08:15:35;;;;;;;2.03;0.60;;;;;;;21.79;48.81;100476.50;4995825;28;20034;-59
2021/10/05 08:18:01;;;;;;;1.63;0.75;;;;;;;21.74;49.11;100477.78;4994684;28;20042;-60
2021/10/05 08:20:27;;;;;;;0.90;0.50;;;;;;;21.73;49.16;100468.19;4996029;28;20034;-59
2021/10/05 08:22:53;;;;;;;2.58;0.60;;;;;;;21.73;49.03;100468.19;4996588;28;20109;-59
2021/10/05 08:25:18;;;;;;;1.65;0.63;;;;;;;21.71;49.06;100458.72;4995214;28;20096;-60
2021/10/05 08:27:47;;;;;;;1.88;0.40;;;;;;;21.68;49.14;100454.59;4996150;28;20447;-59
2021/10/05 08:30:14;;;;;;;2.40;0.50;;;;;;;21.68;49.04;100443.13;4993948;28;20112;-61
2021/10/05 08:32:41;;;;;;;2.22;0.68;;;;;;;21.65;49.33;100454.03;4993792;28;20031;-61
2021/10/05 08:35:07;;;;;;;2.10;0.38;;;;;;;21.62;49.42;100438.44;4994251;28;20022;-61
2021/10/05 08:37:32;;;;;;;1.75;0.40;;;;;;;21.59;49.65;100436.09;4993680;28;20508;-62
2021/10/05 08:39:58;;;;;;;1.38;0.50;;;;;;;21.60;49.67;100428.00;4995173;28;20030;-59
2021/10/05 08:42:23;;;;;;;1.25;0.60;;;;;;;21.64;49.56;100432.00;4994067;28;20034;-60
2021/10/05 08:44:52;;;;;;;2.20;0.50;;;;;;;21.71;49.45;100424.25;4993819;28;20110;-61
2021/10/05 08:47:19;;;;;;;1.83;0.50;;;;;;;21.76;49.34;100413.16;4994363;28;20383;-61
2021/10/05 08:49:45;;;;;;;1.08;0.43;;;;;;;21.79;49.24;100404.88;4994211;28;20175;-62
2021/10/05 08:52:11;;;;;;;2.63;0.52;;;;;;;21.80;49.26;100407.38;4993639;28;20038;-61
2021/10/05 08:54:40;;;;;;;1.45;0.52;;;;;;;21.79;49.09;100405.72;4994438;28;20023;-61
2021/10/05 08:57:09;;;;;;;1.25;0.50;;;;;;;21.79;49.07;100396.94;4993588;28;20038;-59
2021/10/05 08:59:40;;;;;;;1.38;0.50;;;;;;;21.78;48.93;100403.22;4993457;28;20026;-59
2021/10/05 09:02:14;;;;;;;1.25;0.47;;;;;;;21.76;49.10;100394.59;4994101;28;20030;-60
2021/10/05 09:04:44;;;;;;;1.63;0.60;;;;;;;21.71;49.02;100390.63;4994349;28;20022;-62
2021/10/05 09:07:23;;;;;;;2.97;0.60;;;;;;;21.71;49.26;100392.41;4993268;28;20064;-59
2021/10/05 09:10:05;;;;;;;1.35;0.50;;;;;;;21.73;49.48;100387.81;4994267;28;20027;-60
2021/10/05 09:12:32;;;;;;;1.73;0.50;;;;;;;21.73;49.43;100390.47;4994078;28;20088;-59
2021/10/05 09:15:00;;;;;;;2.42;0.70;;;;;;;21.73;49.50;100395.75;4993866;28;20041;-60
2021/10/05 09:17:27;;;;;;;1.60;0.50;;;;;;;21.72;49.59;100380.84;4993861;28;20062;-59
2021/10/05 09:19:57;;;;;;;0.98;0.45;;;;;;;21.72;49.18;100373.69;4992486;28;20101;-58
2021/10/05 09:22:25;;;;;;;1.42;0.65;;;;;;;21.71;49.63;100371.19;4993434;28;20115;-59
2021/10/05 09:24:54;;;;;;;1.05;0.50;;;;;;;21.69;49.53;100375.84;4993691;28;20026;-59
2021/10/05 09:27:20;;;;;;;1.45;0.50;;;;;;;21.66;49.55;100344.34;4992877;28;20124;-62
2021/10/05 09:29:49;;;;;;;1.80;0.50;;;;;;;21.63;49.87;100352.59;4993644;28;20112;-59
2021/10/05 09:32:17;;;;;;;1.02;0.50;;;;;;;21.62;49.86;100348.28;4993765;28;20466;-61
2021/10/05 09:34:56;;;;;;;1.55;0.50;;;;;;;21.67;49.22;100344.19;4993854;28;20057;-61
2021/10/05 09:37:35;;;;;;;2.67;0.50;;;;;;;21.74;49.50;100339.88;4994498;28;20088;-60
2021/10/05 09:40:11;;;;;;;2.35;0.50;;;;;;;21.77;49.10;100340.56;4995182;28;20033;-60
2021/10/05 09:42:39;;;;;;;1.50;0.40;;;;;;;21.78;49.19;100321.84;4995211;28;20061;-63
2021/10/05 09:45:12;;;;;;;2.85;0.60;;;;;;;21.80;48.98;100327.00;4994461;28;20113;-64
2021/10/05 09:47:49;;;;;;;2.08;0.70;;;;;;;21.80;49.05;100322.50;4993719;28;20120;-62
2021/10/05 09:50:24;;;;;;;2.95;0.70;;;;;;;21.83;48.89;100313.41;4993472;28;20062;-61
2021/10/05 09:52:52;;;;;;;1.58;0.55;;;;;;;21.83;48.88;100306.28;4993012;28;20045;-60
2021/10/05 09:55:24;;;;;;;2.05;0.40;;;;;;;21.80;48.94;100311.06;4992306;28;20089;-60
2021/10/05 09:57:50;;;;;;;2.63;0.57;;;;;;;21.79;48.98;100310.22;4993398;28;20034;-61
2021/10/05 10:00:17;;;;;;;1.63;0.50;;;;;;;21.82;48.97;100304.59;4993387;28;20455;-63
2021/10/05 10:02:46;;;;;;;1.98;0.40;;;;;;;21.83;49.02;100308.91;4993090;28;20042;-60
2021/10/05 10:05:14;;;;;;;0.82;0.45;;;;;;;21.84;49.13;100297.34;4994184;28;20031;-60
2021/10/05 10:07:42;;;;;;;2.25;0.60;;;;;;;21.82;48.90;100304.59;4993333;28;20462;-61
2021/10/05 10:10:12;;;;;;;1.75;0.60;;;;;;;21.81;49.06;100302.97;4992041;28;20031;-62
2021/10/05 10:12:47;;;;;;;1.60;0.50;;;;;;;21.80;49.00;100313.72;4992956;28;20454;-62
2021/10/05 10:15:13;;;;;;;2.25;0.60;;;;;;;21.77;49.06;100306.09;4992900;28;20031;-62
2021/10/05 10:17:38;;;;;;;3.70;0.65;;;;;;;21.73;49.32;100305.59;4992454;28;20042;-61
2021/10/05 10:20:06;;;;;;;1.30;0.50;;;;;;;21.71;49.31;100310.22;4992821;28;20153;-62
2021/10/05 10:22:42;;;;;;;3.53;0.60;;;;;;;21.73;49.41;100319.66;4993843;28;20030;-60
2021/10/05 10:25:19;;;;;;;2.25;0.47;;;;;;;21.79;48.93;100317.38;4992330;28;20023;-60
2021/10/05 10:27:45;;;;;;;1.05;0.40;;;;;;;21.82;49.29;100320.50;4993163;28;20045;-60
2021/10/05 10:30:13;;;;;;;2.25;0.70;;;;;;;21.86;49.04;100324.50;4992080;28;20034;-60
2021/10/05 10:32:57;;;;;;;2.28;0.50;;;;;;;21.88;48.80;100322.53;4996480;28;20081;-59
2021/10/05 10:35:23;;;;;;;2.40;0.60;;;;;;;21.92;48.93;100317.72;4997124;28;20032;-60
2021/10/05 10:37:50;;;;;;;1.48;0.60;;;;;;;21.96;48.94;100305.81;4996780;28;20034;-61
2021/10/05 10:40:17;;;;;;;2.05;0.63;;;;;;;21.98;48.77;100317.06;4997184;28;20026;-60
2021/10/05 10:42:43;;;;;;;2.53;0.60;;;;;;;22.00;48.60;100309.81;4997328;28;20046;-60
2021/10/05 10:45:18;;;;;;;0.95;0.50;;;;;;;21.99;48.67;100312.63;4995844;28;20406;-62
2021/10/05 10:47:47;;;;;;;2.15;0.50;;;;;;;21.94;48.97;100297.19;4997289;28;20451;-60
2021/10/05 10:50:15;;;;;;;1.73;0.50;;;;;;;21.96;48.98;100299.66;4998063;28;20038;-61
2021/10/05 10:52:44;;;;;;;2.10;0.70;;;;;;;21.94;48.82;100299.84;4995871;28;20406;-59
2021/10/05 10:55:12;;;;;;;2.00;0.68;;;;;;;21.94;49.11;100294.53;4996729;28;20034;-64
2021/10/05 10:57:43;;;;;;;1.30;0.60;;;;;;;21.92;48.99;100296.50;4996380;28;20042;-62
2021/10/05 11:00:16;;;;;;;2.50;0.57;;;;;;;21.88;49.35;100295.19;4995382;28;20026;-62
2021/10/05 11:02:46;;;;;;;1.42;0.50;;;;;;;21.86;49.43;100287.38;4996199;28;20113;-62
2021/10/05 11:05:13;;;;;;;1.58;0.32;;;;;;;21.83;49.57;100290.34;4995251;28;20092;-61
2021/10/05 11:07:39;;;;;;;2.20;0.60;;;;;;;21.81;49.60;100292.34;4996357;28;20030;-61
2021/10/05 11:10:06;;;;;;;1.88;0.60;;;;;;;21.74;49.64;100278.88;4995820;28;20026;-60
2021/10/05 11:12:33;;;;;;;0.98;0.43;;;;;;;21.72;49.73;100277.41;4995341;28;20023;-61
2021/10/05 11:14:59;;;;;;;1.10;0.50;;;;;;;21.69;49.88;100267.94;4995797;28;20046;-61
2021/10/05 11:17:24;;;;;;;1.60;0.63;;;;;;;21.68;49.85;100262.78;4995742;28;20029;-61
2021/10/05 11:20:03;;;;;;;1.20;0.45;;;;;;;21.68;49.75;100270.75;4995502;28;20031;-61
2021/10/05 11:22:28;;;;;;;1.48;0.57;;;;;;;21.66;49.97;100256.84;4996149;28;20030;-61
2021/10/05 11:24:54;;;;;;;2.07;0.50;;;;;;;21.63;49.91;100255.31;4995991;28;20364;-60